Portada
METAR-TAF:

METAR-TAF

Aeropuertos :

Madrid, España

Aeropuerto de Madrid-Barajas

latitud: 40-27N, longitud: 003-33W, altitud: 609 m

Observación

El informe se hizo hace 18 minutos, a las 08:00 UTC
Viento 2 kt del norte
Temperatura -4°C
Humedad 80%
Presión 1006 hPa
Visibilidad 10 km o más
sin nubes por debajo de 1500 m y sin presencia de cumulonimbus.

METAR: LEMD 240800Z 36002KT CAVOK M04/M07 Q1006 NOSIG

Hora: 09:18 (08:18 UTC)

Pronóstico

El informe se hizo hace 3 horas y 18 minutos, a las 05:00 UTC
Pronóstico válido del 24 a las 06 UTC al 25 a las 12 UTC
Viento 5 kt con dirección variable
Visibilidad 10 km o más
sin nubes por debajo de 1500 m y sin presencia de cumulonimbus.
Temporalmente
del 24 a las 12 UTC al 24 a las 18 UTC
Viento 5 kt del sur-suroeste

TAF: LEMD 240500Z 2406/2512 VRB05KT CAVOK TX12/2415Z TNM05/2407Z TEMPO 2412/2418 20005KT

Observaciones y pronósticos meteorológicos de más de 4000 aeropuertos (mensajes METAR y TAF).

Los puntos amarillos y rojos representan las estaciones disponibles.

Ponga el ratón en el punto deseado para ver el nombre de la estación.

Haga clic para ver las observaciones y los pronósticos meteorológicos.

Para cambiar el mapa : haga clic en los botones verdes con una cruz de color negro para hacer un zoom, en el botón verde con un guión para alejar o en las flechas verdes para mapas adyacentes.


METAR-TAF: